sensor_id;sensor_type;location;lat;lon;timestamp;P1;durP1;ratioP1;P2;durP2;ratioP2
78668;SDS011;67984;45.118;20.724;2023-12-29T00:05:42;130.18;;;55.88;;
78668;SDS011;67984;45.118;20.724;2023-12-29T00:15:44;111.38;;;49.30;;
78668;SDS011;67984;45.118;20.724;2023-12-29T00:25:48;153.95;;;68.82;;
78668;SDS011;67984;45.118;20.724;2023-12-29T00:35:49;125.03;;;60.38;;
78668;SDS011;67984;45.118;20.724;2023-12-29T00:55:51;122.70;;;51.90;;
78668;SDS011;67984;45.118;20.724;2023-12-29T01:05:53;125.55;;;56.25;;
78668;SDS011;67984;45.118;20.724;2023-12-29T01:25:55;110.45;;;45.85;;
78668;SDS011;67984;45.118;20.724;2023-12-29T01:35:56;97.43;;;48.05;;
78668;SDS011;67984;45.118;20.724;2023-12-29T01:45:58;106.28;;;49.35;;
78668;SDS011;67984;45.118;20.724;2023-12-29T01:55:59;102.55;;;49.33;;
78668;SDS011;67984;45.118;20.724;2023-12-29T02:06:01;105.65;;;51.30;;
78668;SDS011;67984;45.118;20.724;2023-12-29T02:26:33;96.43;;;46.10;;
78668;SDS011;67984;45.118;20.724;2023-12-29T02:36:36;94.50;;;45.83;;
78668;SDS011;67984;45.118;20.724;2023-12-29T02:46:43;82.93;;;43.05;;
78668;SDS011;67984;45.118;20.724;2023-12-29T02:56:44;83.70;;;39.65;;
78668;SDS011;67984;45.118;20.724;2023-12-29T03:06:46;79.53;;;36.50;;
78668;SDS011;67984;45.118;20.724;2023-12-29T03:16:47;77.40;;;36.58;;
78668;SDS011;67984;45.118;20.724;2023-12-29T03:26:48;90.45;;;41.13;;
78668;SDS011;67984;45.118;20.724;2023-12-29T03:36:50;83.18;;;42.40;;
78668;SDS011;67984;45.118;20.724;2023-12-29T03:46:51;86.05;;;42.67;;
78668;SDS011;67984;45.118;20.724;2023-12-29T03:56:52;93.35;;;42.72;;
78668;SDS011;67984;45.118;20.724;2023-12-29T04:06:54;87.30;;;39.90;;
78668;SDS011;67984;45.118;20.724;2023-12-29T04:16:55;84.07;;;40.63;;
78668;SDS011;67984;45.118;20.724;2023-12-29T04:26:56;85.45;;;39.65;;
78668;SDS011;67984;45.118;20.724;2023-12-29T04:36:58;105.78;;;49.50;;
78668;SDS011;67984;45.118;20.724;2023-12-29T04:47:01;128.20;;;50.03;;
78668;SDS011;67984;45.118;20.724;2023-12-29T04:57:02;90.85;;;42.53;;
78668;SDS011;67984;45.118;20.724;2023-12-29T05:07:08;79.22;;;42.53;;
78668;SDS011;67984;45.118;20.724;2023-12-29T05:17:09;88.80;;;42.13;;
78668;SDS011;67984;45.118;20.724;2023-12-29T05:27:11;87.65;;;37.83;;
78668;SDS011;67984;45.118;20.724;2023-12-29T05:37:12;91.50;;;41.33;;
78668;SDS011;67984;45.118;20.724;2023-12-29T05:47:14;87.68;;;42.25;;
78668;SDS011;67984;45.118;20.724;2023-12-29T05:57:15;78.97;;;39.17;;
78668;SDS011;67984;45.118;20.724;2023-12-29T06:07:16;98.13;;;48.33;;
78668;SDS011;67984;45.118;20.724;2023-12-29T06:17:36;95.45;;;42.17;;
78668;SDS011;67984;45.118;20.724;2023-12-29T06:27:38;96.82;;;46.42;;
78668;SDS011;67984;45.118;20.724;2023-12-29T06:47:40;87.85;;;42.58;;
78668;SDS011;67984;45.118;20.724;2023-12-29T06:57:41;97.80;;;48.47;;
78668;SDS011;67984;45.118;20.724;2023-12-29T07:07:43;92.88;;;45.92;;
78668;SDS011;67984;45.118;20.724;2023-12-29T07:17:44;94.40;;;40.55;;
78668;SDS011;67984;45.118;20.724;2023-12-29T07:27:45;96.25;;;46.97;;
78668;SDS011;67984;45.118;20.724;2023-12-29T07:37:47;87.50;;;43.33;;
78668;SDS011;67984;45.118;20.724;2023-12-29T07:47:48;83.32;;;41.85;;
78668;SDS011;67984;45.118;20.724;2023-12-29T07:57:49;83.20;;;42.30;;
78668;SDS011;67984;45.118;20.724;2023-12-29T08:07:51;81.28;;;41.40;;
78668;SDS011;67984;45.118;20.724;2023-12-29T08:17:52;96.07;;;48.53;;
78668;SDS011;67984;45.118;20.724;2023-12-29T08:27:54;88.20;;;44.10;;
78668;SDS011;67984;45.118;20.724;2023-12-29T08:37:55;98.78;;;52.65;;
78668;SDS011;67984;45.118;20.724;2023-12-29T08:47:56;93.80;;;46.95;;
78668;SDS011;67984;45.118;20.724;2023-12-29T08:57:59;91.40;;;46.30;;
78668;SDS011;67984;45.118;20.724;2023-12-29T09:08:00;88.22;;;46.28;;
78668;SDS011;67984;45.118;20.724;2023-12-29T09:18:01;86.40;;;45.42;;
78668;SDS011;67984;45.118;20.724;2023-12-29T09:28:03;78.40;;;42.92;;
78668;SDS011;67984;45.118;20.724;2023-12-29T09:38:04;79.10;;;41.55;;
78668;SDS011;67984;45.118;20.724;2023-12-29T09:48:08;67.97;;;34.25;;
78668;SDS011;67984;45.118;20.724;2023-12-29T09:58:13;73.60;;;33.22;;
78668;SDS011;67984;45.118;20.724;2023-12-29T10:08:15;54.75;;;25.92;;
78668;SDS011;67984;45.118;20.724;2023-12-29T10:28:31;39.45;;;20.65;;
78668;SDS011;67984;45.118;20.724;2023-12-29T10:38:33;37.65;;;20.85;;
78668;SDS011;67984;45.118;20.724;2023-12-29T10:48:34;41.55;;;21.60;;
78668;SDS011;67984;45.118;20.724;2023-12-29T10:58:35;47.50;;;22.33;;
78668;SDS011;67984;45.118;20.724;2023-12-29T11:08:38;33.10;;;18.67;;
78668;SDS011;67984;45.118;20.724;2023-12-29T11:18:40;50.20;;;23.85;;
78668;SDS011;67984;45.118;20.724;2023-12-29T11:28:47;34.95;;;21.13;;
78668;SDS011;67984;45.118;20.724;2023-12-29T11:48:56;76.13;;;37.80;;
78668;SDS011;67984;45.118;20.724;2023-12-29T11:59:17;74.43;;;31.30;;
78668;SDS011;67984;45.118;20.724;2023-12-29T12:09:22;72.35;;;36.20;;
78668;SDS011;67984;45.118;20.724;2023-12-29T12:19:26;77.05;;;38.28;;
78668;SDS011;67984;45.118;20.724;2023-12-29T12:29:30;87.85;;;43.65;;
78668;SDS011;67984;45.118;20.724;2023-12-29T12:39:38;94.85;;;49.13;;
78668;SDS011;67984;45.118;20.724;2023-12-29T12:49:39;71.35;;;35.83;;
78668;SDS011;67984;45.118;20.724;2023-12-29T12:59:40;57.20;;;30.48;;
78668;SDS011;67984;45.118;20.724;2023-12-29T13:09:42;85.82;;;43.00;;
78668;SDS011;67984;45.118;20.724;2023-12-29T13:19:44;50.13;;;24.33;;
78668;SDS011;67984;45.118;20.724;2023-12-29T13:40:17;60.65;;;31.33;;
78668;SDS011;67984;45.118;20.724;2023-12-29T13:50:23;59.50;;;32.67;;
78668;SDS011;67984;45.118;20.724;2023-12-29T14:00:25;46.45;;;27.02;;
78668;SDS011;67984;45.118;20.724;2023-12-29T14:10:34;50.63;;;29.30;;
78668;SDS011;67984;45.118;20.724;2023-12-29T14:20:35;42.55;;;23.73;;
78668;SDS011;67984;45.118;20.724;2023-12-29T14:30:37;91.57;;;48.15;;
78668;SDS011;67984;45.118;20.724;2023-12-29T14:40:38;127.72;;;62.22;;
78668;SDS011;67984;45.118;20.724;2023-12-29T14:50:39;205.00;;;101.45;;
78668;SDS011;67984;45.118;20.724;2023-12-29T15:00:46;210.52;;;67.93;;
78668;SDS011;67984;45.118;20.724;2023-12-29T15:10:48;105.82;;;42.75;;
78668;SDS011;67984;45.118;20.724;2023-12-29T15:20:49;88.07;;;43.25;;
78668;SDS011;67984;45.118;20.724;2023-12-29T15:30:52;66.25;;;32.72;;
78668;SDS011;67984;45.118;20.724;2023-12-29T15:40:53;82.97;;;42.20;;
78668;SDS011;67984;45.118;20.724;2023-12-29T15:50:55;83.90;;;47.05;;
78668;SDS011;67984;45.118;20.724;2023-12-29T16:00:57;63.88;;;36.00;;
78668;SDS011;67984;45.118;20.724;2023-12-29T16:10:58;68.13;;;35.78;;
78668;SDS011;67984;45.118;20.724;2023-12-29T16:20:59;76.97;;;37.90;;
78668;SDS011;67984;45.118;20.724;2023-12-29T16:31:04;65.18;;;30.92;;
78668;SDS011;67984;45.118;20.724;2023-12-29T16:41:06;62.83;;;30.25;;
78668;SDS011;67984;45.118;20.724;2023-12-29T16:51:07;49.20;;;27.70;;
78668;SDS011;67984;45.118;20.724;2023-12-29T17:01:08;60.67;;;32.90;;
78668;SDS011;67984;45.118;20.724;2023-12-29T17:11:11;45.83;;;21.85;;
78668;SDS011;67984;45.118;20.724;2023-12-29T17:21:12;37.03;;;19.77;;
78668;SDS011;67984;45.118;20.724;2023-12-29T17:31:13;42.42;;;21.42;;
78668;SDS011;67984;45.118;20.724;2023-12-29T17:41:15;63.83;;;32.95;;
78668;SDS011;67984;45.118;20.724;2023-12-29T17:51:20;75.88;;;34.58;;
78668;SDS011;67984;45.118;20.724;2023-12-29T18:01:25;93.50;;;40.88;;
78668;SDS011;67984;45.118;20.724;2023-12-29T18:11:26;99.00;;;43.90;;
78668;SDS011;67984;45.118;20.724;2023-12-29T18:21:31;66.60;;;31.85;;
78668;SDS011;67984;45.118;20.724;2023-12-29T18:31:41;58.08;;;29.15;;
78668;SDS011;67984;45.118;20.724;2023-12-29T18:41:43;57.80;;;29.83;;
78668;SDS011;67984;45.118;20.724;2023-12-29T18:51:44;63.28;;;31.23;;
78668;SDS011;67984;45.118;20.724;2023-12-29T19:01:50;54.97;;;30.05;;
78668;SDS011;67984;45.118;20.724;2023-12-29T19:11:51;55.75;;;30.27;;
78668;SDS011;67984;45.118;20.724;2023-12-29T19:21:53;51.42;;;26.85;;
78668;SDS011;67984;45.118;20.724;2023-12-29T19:31:54;65.35;;;34.88;;
78668;SDS011;67984;45.118;20.724;2023-12-29T19:41:55;56.75;;;32.92;;
78668;SDS011;67984;45.118;20.724;2023-12-29T19:51:57;69.68;;;33.47;;
78668;SDS011;67984;45.118;20.724;2023-12-29T20:01:59;71.53;;;34.53;;
78668;SDS011;67984;45.118;20.724;2023-12-29T20:12:00;151.00;;;63.00;;
78668;SDS011;67984;45.118;20.724;2023-12-29T20:22:01;98.63;;;42.35;;
78668;SDS011;67984;45.118;20.724;2023-12-29T20:32:02;90.85;;;46.55;;
78668;SDS011;67984;45.118;20.724;2023-12-29T20:42:04;95.15;;;41.75;;
78668;SDS011;67984;45.118;20.724;2023-12-29T20:52:05;121.22;;;54.05;;
78668;SDS011;67984;45.118;20.724;2023-12-29T21:02:07;90.63;;;43.22;;
78668;SDS011;67984;45.118;20.724;2023-12-29T21:12:08;107.15;;;51.40;;
78668;SDS011;67984;45.118;20.724;2023-12-29T21:22:11;124.47;;;55.50;;
78668;SDS011;67984;45.118;20.724;2023-12-29T21:32:13;134.77;;;61.80;;
78668;SDS011;67984;45.118;20.724;2023-12-29T21:42:15;138.20;;;60.35;;
78668;SDS011;67984;45.118;20.724;2023-12-29T21:52:17;146.02;;;64.45;;
78668;SDS011;67984;45.118;20.724;2023-12-29T22:02:18;141.90;;;61.70;;
78668;SDS011;67984;45.118;20.724;2023-12-29T22:12:19;121.38;;;59.08;;
78668;SDS011;67984;45.118;20.724;2023-12-29T22:22:21;143.18;;;67.40;;
78668;SDS011;67984;45.118;20.724;2023-12-29T22:32:22;140.00;;;66.45;;
78668;SDS011;67984;45.118;20.724;2023-12-29T22:42:25;180.77;;;77.32;;
78668;SDS011;67984;45.118;20.724;2023-12-29T22:52:30;152.38;;;70.05;;
78668;SDS011;67984;45.118;20.724;2023-12-29T23:02:32;163.55;;;79.47;;
78668;SDS011;67984;45.118;20.724;2023-12-29T23:12:33;152.20;;;68.75;;
78668;SDS011;67984;45.118;20.724;2023-12-29T23:22:35;137.60;;;54.72;;
78668;SDS011;67984;45.118;20.724;2023-12-29T23:32:37;133.77;;;60.63;;
78668;SDS011;67984;45.118;20.724;2023-12-29T23:42:38;143.18;;;69.75;;
78668;SDS011;67984;45.118;20.724;2023-12-29T23:52:40;144.43;;;64.90;;
